Time;durP1;ratioP1;P1;durP2;ratioP2;P2;SDS_P1;SDS_P2;PMS_P1;PMS_P2;Temp;Humidity;BMP_temperature;BMP_pressure;BME280_temperature;BME280_humidity;BME280_pressure;Samples;Min_cycle;Max_cycle;Signal;HPM_P1;HPM_P2
2023/05/02 00:01:56;;;;;;;23.90;15.38;;;11.30;99.90;;;;;;6159469;23;20044;-78
2023/05/02 00:04:23;;;;;;;20.25;14.68;;;11.30;99.90;;;;;;6185695;23;20311;-78
2023/05/02 00:06:50;;;;;;;17.23;13.63;;;11.30;99.90;;;;;;6159577;23;20408;-78
2023/05/02 00:09:16;;;;;;;24.52;15.43;;;11.30;99.90;;;;;;6159649;23;20017;-78
2023/05/02 00:11:41;;;;;;;23.83;15.50;;;11.20;99.90;;;;;;6186217;23;20076;-78
2023/05/02 00:14:07;;;;;;;22.60;15.27;;;11.10;99.90;;;;;;6159537;23;20452;-78
2023/05/02 00:16:32;;;;;;;22.67;14.82;;;11.20;99.90;;;;;;6186157;23;20431;-78
2023/05/02 00:18:58;;;;;;;19.08;13.32;;;11.10;99.90;;;;;;6186163;23;20048;-78
2023/05/02 00:21:24;;;;;;;19.48;14.27;;;11.00;99.90;;;;;;6173933;23;20327;-78
2023/05/02 00:23:52;;;;;;;20.42;13.45;;;10.90;99.90;;;;;;6159353;23;20386;-78
2023/05/02 00:26:18;;;;;;;22.75;12.07;;;11.00;99.90;;;;;;6184255;23;20064;-78
2023/05/02 00:28:44;;;;;;;17.08;11.63;;;10.90;99.90;;;;;;6184155;23;20017;-78
2023/05/02 00:31:09;;;;;;;17.17;10.35;;;10.90;99.90;;;;;;6186123;23;20009;-78
2023/05/02 00:33:35;;;;;;;15.20;10.18;;;10.70;99.90;;;;;;6159287;23;20009;-78
2023/05/02 00:36:00;;;;;;;16.48;10.77;;;10.70;99.90;;;;;;6185975;23;20013;-78
2023/05/02 00:38:26;;;;;;;13.20;8.30;;;10.70;99.90;;;;;;6185456;23;20009;-78
2023/05/02 00:40:52;;;;;;;12.73;7.72;;;10.70;99.90;;;;;;6185471;23;20013;-77
2023/05/02 00:43:18;;;;;;;12.63;7.05;;;10.60;99.90;;;;;;6186063;23;20013;-78
2023/05/02 00:45:45;;;;;;;10.90;5.70;;;10.50;99.90;;;;;;6185707;23;20021;-77
2023/05/02 00:48:11;;;;;;;9.77;5.85;;;10.60;99.90;;;;;;6184004;23;20013;-77
2023/05/02 00:50:42;;;;;;;11.48;6.20;;;10.60;99.90;;;;;;6184191;23;20013;-78
2023/05/02 00:53:09;;;;;;;8.00;5.20;;;10.60;99.90;;;;;;6159257;23;20017;-77
2023/05/02 00:55:36;;;;;;;7.43;4.90;;;10.60;99.90;;;;;;6183955;23;20013;-77
2023/05/02 00:58:05;;;;;;;5.75;4.60;;;10.70;99.90;;;;;;6185728;23;20013;-77
2023/05/02 01:01:02;;;;;;;5.80;4.22;;;10.70;99.90;;;;;;6185813;23;20346;-77
2023/05/02 01:03:58;;;;;;;6.95;4.50;;;10.60;99.90;;;;;;6185774;23;20100;-77
2023/05/02 01:06:58;;;;;;;8.93;4.88;;;10.60;99.90;;;;;;6185822;23;20013;-77
2023/05/02 01:10:02;;;;;;;6.35;4.10;;;10.60;99.90;;;;;;6185536;23;20464;-77
2023/05/02 01:12:37;;;;;;;6.82;4.50;;;10.50;99.90;;;;;;6158731;23;20020;-77
2023/05/02 01:15:06;;;;;;;7.10;4.22;;;10.40;99.90;;;;;;6185379;23;20430;-77
2023/05/02 01:17:34;;;;;;;10.68;5.50;;;10.50;99.90;;;;;;6185656;23;20009;-77
2023/05/02 01:20:06;;;;;;;8.45;4.70;;;10.40;99.90;;;;;;6183553;23;20063;-77
2023/05/02 01:22:32;;;;;;;7.38;4.40;;;10.40;99.90;;;;;;6185018;23;20056;-78
2023/05/02 01:25:08;;;;;;;8.25;4.78;;;10.50;99.90;;;;;;6185534;23;20025;-77
2023/05/02 01:27:46;;;;;;;9.45;5.28;;;10.40;99.90;;;;;;6158998;23;20013;-77
2023/05/02 01:30:15;;;;;;;7.60;4.53;;;10.40;99.90;;;;;;6185289;23;20427;-77
2023/05/02 01:32:44;;;;;;;11.45;5.15;;;10.40;99.90;;;;;;6159073;23;20009;-77
2023/05/02 01:35:10;;;;;;;7.57;4.57;;;10.40;99.90;;;;;;6160619;23;20067;-77
2023/05/02 01:37:38;;;;;;;10.50;5.43;;;10.40;99.90;;;;;;6160694;23;20455;-77
2023/05/02 01:40:06;;;;;;;10.20;4.50;;;10.30;99.90;;;;;;6136123;23;20020;-77
2023/05/02 01:42:33;;;;;;;7.68;5.07;;;10.20;99.90;;;;;;6160703;23;20434;-77
2023/05/02 01:45:02;;;;;;;6.93;3.95;;;10.20;99.90;;;;;;6135982;23;20024;-77
2023/05/02 01:47:31;;;;;;;6.45;4.53;;;10.20;99.90;;;;;;6160732;23;20013;-77
2023/05/02 01:49:58;;;;;;;8.30;4.87;;;10.20;99.90;;;;;;6136560;23;20450;-77
2023/05/02 01:52:26;;;;;;;9.05;5.47;;;10.20;99.90;;;;;;6187337;23;20016;-77
2023/05/02 01:54:54;;;;;;;8.40;4.90;;;10.20;99.90;;;;;;6136096;23;20013;-77
2023/05/02 01:57:20;;;;;;;9.75;4.72;;;10.10;99.90;;;;;;6160586;23;20029;-77
2023/05/02 01:59:48;;;;;;;9.32;5.00;;;10.10;99.90;;;;;;6136351;23;20009;-77
2023/05/02 02:02:15;;;;;;;10.55;5.85;;;10.10;99.90;;;;;;6135906;23;20115;-77
2023/05/02 02:04:42;;;;;;;10.30;5.25;;;10.10;99.90;;;;;;6135888;23;20013;-77
2023/05/02 02:07:11;;;;;;;9.02;4.50;;;10.10;99.90;;;;;;6160482;23;20114;-78
2023/05/02 02:09:37;;;;;;;11.25;5.10;;;10.10;99.90;;;;;;6160574;23;20039;-77
2023/05/02 02:12:15;;;;;;;9.70;5.50;;;10.10;99.90;;;;;;6136036;23;20419;-77
2023/05/02 02:14:46;;;;;;;9.05;4.97;;;10.00;99.90;;;;;;6187217;23;20017;-77
2023/05/02 02:17:15;;;;;;;9.38;5.18;;;10.10;99.90;;;;;;6187207;23;20101;-77
2023/05/02 02:19:41;;;;;;;13.00;6.20;;;10.00;99.90;;;;;;6187135;23;20012;-77
2023/05/02 02:22:08;;;;;;;10.77;4.57;;;9.90;99.90;;;;;;6158938;23;20427;-77
2023/05/02 02:24:36;;;;;;;8.88;5.50;;;9.90;99.90;;;;;;6160379;23;20017;-77
2023/05/02 02:27:02;;;;;;;10.48;4.80;;;9.90;99.90;;;;;;6160267;23;20017;-77
2023/05/02 02:29:28;;;;;;;7.47;5.10;;;9.90;99.90;;;;;;6160254;23;20019;-77
2023/05/02 02:31:54;;;;;;;18.88;4.95;;;9.90;99.90;;;;;;6185217;23;20013;-77
2023/05/02 02:34:20;;;;;;;14.73;5.22;;;10.00;99.90;;;;;;6160413;23;20012;-77
2023/05/02 02:37:29;;;;;;;13.68;5.05;;;10.00;99.90;;;;;;6160325;23;20446;-77
2023/05/02 02:40:02;;;;;;;12.10;4.20;;;10.10;99.90;;;;;;6185200;23;20009;-78
2023/05/02 02:42:45;;;;;;;13.27;4.22;;;10.00;99.90;;;;;;6160157;23;20439;-77
2023/05/02 02:45:14;;;;;;;11.73;4.45;;;10.00;99.90;;;;;;6186602;23;20072;-77
2023/05/02 02:48:07;;;;;;;11.85;4.28;;;9.80;99.90;;;;;;6186862;23;20013;-77
2023/05/02 02:51:08;;;;;;;11.85;3.95;;;9.80;99.90;;;;;;6186972;23;20051;-77
2023/05/02 02:53:46;;;;;;;16.02;5.07;;;9.80;99.90;;;;;;6154384;23;20442;-77
2023/05/02 02:56:15;;;;;;;15.60;4.70;;;9.70;99.90;;;;;;6185482;23;20045;-78
2023/05/02 02:59:04;;;;;;;14.13;4.88;;;9.70;99.90;;;;;;6184905;23;20013;-77
2023/05/02 03:01:31;;;;;;;23.23;6.25;;;9.70;99.90;;;;;;6186905;23;20092;-77
2023/05/02 03:03:58;;;;;;;15.52;4.38;;;9.70;99.90;;;;;;6185168;23;20331;-78
2023/05/02 03:06:24;;;;;;;15.90;4.63;;;9.70;99.90;;;;;;6160134;23;20059;-77
2023/05/02 03:08:50;;;;;;;14.32;4.65;;;9.70;99.90;;;;;;6185181;23;20015;-77
2023/05/02 03:11:16;;;;;;;13.80;4.28;;;9.70;99.90;;;;;;6184786;23;20036;-77
2023/05/02 03:13:41;;;;;;;19.40;4.50;;;9.70;99.90;;;;;;6159880;23;20013;-77
2023/05/02 03:16:10;;;;;;;19.15;5.82;;;9.70;99.90;;;;;;6186552;23;20035;-77
2023/05/02 03:18:36;;;;;;;14.13;4.90;;;9.60;99.90;;;;;;6159753;23;20339;-77
2023/05/02 03:21:01;;;;;;;16.55;4.50;;;9.50;99.90;;;;;;6186125;23;20029;-77
2023/05/02 03:23:27;;;;;;;18.83;6.22;;;9.60;99.90;;;;;;6159751;23;20350;-77
2023/05/02 03:25:53;;;;;;;15.45;4.40;;;9.50;99.90;;;;;;6159812;23;20016;-77
2023/05/02 03:28:18;;;;;;;21.15;5.75;;;9.50;99.90;;;;;;6159734;23;20438;-77
2023/05/02 03:30:44;;;;;;;13.00;4.32;;;9.60;99.90;;;;;;6135248;23;20020;-77
2023/05/02 03:33:09;;;;;;;14.93;4.38;;;9.60;99.90;;;;;;6159766;23;20013;-77
2023/05/02 03:35:35;;;;;;;19.52;5.40;;;9.60;99.90;;;;;;6135042;23;20023;-77
2023/05/02 03:38:01;;;;;;;17.15;4.50;;;9.50;99.90;;;;;;6159790;23;20045;-77
2023/05/02 03:40:26;;;;;;;12.02;3.65;;;9.50;99.90;;;;;;6160187;23;20088;-77
2023/05/02 03:42:52;;;;;;;15.63;4.95;;;9.50;99.90;;;;;;6135321;23;20017;-77
2023/05/02 03:45:18;;;;;;;13.60;3.67;;;9.40;99.90;;;;;;6135008;23;20434;-77
2023/05/02 03:47:43;;;;;;;13.52;4.22;;;9.40;99.90;;;;;;6160013;23;20330;-77
2023/05/02 03:50:09;;;;;;;13.60;3.70;;;9.40;99.90;;;;;;6159939;23;20017;-77
2023/05/02 03:52:35;;;;;;;13.43;4.00;;;9.40;99.90;;;;;;6159564;23;20017;-77
2023/05/02 03:55:01;;;;;;;12.98;3.97;;;9.40;99.90;;;;;;6159510;23;20422;-77
2023/05/02 03:57:29;;;;;;;13.15;4.13;;;9.40;99.90;;;;;;6159571;23;20013;-77
2023/05/02 03:59:55;;;;;;;15.02;4.25;;;9.30;99.90;;;;;;6186206;23;20024;-77
2023/05/02 04:02:20;;;;;;;11.95;4.32;;;9.20;99.90;;;;;;6159847;23;20017;-77
2023/05/02 04:04:46;;;;;;;14.38;4.43;;;9.20;99.90;;;;;;6186033;23;20097;-77
2023/05/02 04:07:17;;;;;;;15.27;4.55;;;9.20;99.90;;;;;;6134797;23;20434;-77
2023/05/02 04:09:43;;;;;;;16.63;3.83;;;9.10;99.90;;;;;;6159603;23;20406;-77
2023/05/02 04:12:08;;;;;;;10.10;3.70;;;9.00;99.90;;;;;;6159821;23;20016;-77
2023/05/02 04:14:34;;;;;;;12.93;4.05;;;9.00;99.90;;;;;;6159895;23;20316;-77
2023/05/02 04:17:00;;;;;;;12.05;3.50;;;9.00;99.90;;;;;;6134751;23;20013;-77
2023/05/02 04:19:26;;;;;;;13.80;4.13;;;9.00;99.90;;;;;;6159820;23;20009;-77
2023/05/02 04:21:51;;;;;;;10.73;3.60;;;9.00;99.90;;;;;;6185616;23;20020;-77
2023/05/02 04:24:17;;;;;;;14.85;3.63;;;9.00;99.90;;;;;;6134486;23;20020;-77
2023/05/02 04:26:43;;;;;;;10.70;3.42;;;8.90;99.90;;;;;;6186151;23;20013;-77
2023/05/02 04:29:09;;;;;;;13.90;3.33;;;8.80;99.90;;;;;;6159453;23;20021;-77
2023/05/02 04:31:35;;;;;;;11.32;3.28;;;8.80;99.90;;;;;;6134843;23;20016;-78
2023/05/02 04:34:00;;;;;;;12.93;2.60;;;8.90;99.90;;;;;;6134686;23;20438;-77
2023/05/02 04:36:27;;;;;;;11.70;3.97;;;8.90;99.90;;;;;;6185897;23;20535;-77
2023/05/02 04:38:53;;;;;;;12.43;3.13;;;8.90;99.90;;;;;;6159675;23;20017;-77
2023/05/02 04:41:20;;;;;;;9.68;2.67;;;8.90;99.90;;;;;;6185882;23;20013;-77
2023/05/02 04:43:46;;;;;;;11.77;3.10;;;8.90;99.90;;;;;;6159649;23;20012;-77
2023/05/02 04:46:11;;;;;;;11.45;2.65;;;8.90;99.90;;;;;;6159655;23;20020;-77
2023/05/02 04:48:40;;;;;;;11.48;3.35;;;8.90;99.90;;;;;;6185864;23;20009;-78
2023/05/02 04:51:08;;;;;;;11.10;2.75;;;8.90;99.90;;;;;;6159066;23;20013;-77
2023/05/02 04:53:33;;;;;;;10.20;2.60;;;9.00;99.90;;;;;;6159430;23;20009;-77
2023/05/02 04:55:59;;;;;;;10.77;2.70;;;8.80;99.90;;;;;;6185798;23;20328;-77
2023/05/02 04:58:25;;;;;;;7.53;2.10;;;8.80;99.90;;;;;;6134607;23;20504;-77
2023/05/02 05:00:50;;;;;;;8.88;2.25;;;8.80;99.90;;;;;;6159245;23;20316;-77
2023/05/02 05:03:16;;;;;;;12.07;2.55;;;8.80;99.90;;;;;;6159256;23;20009;-77
2023/05/02 05:05:42;;;;;;;8.90;2.13;;;8.90;99.90;;;;;;6185378;23;20010;-78
2023/05/02 05:08:07;;;;;;;11.48;3.13;;;8.90;99.90;;;;;;6135570;23;20075;-78
2023/05/02 05:10:33;;;;;;;7.75;2.45;;;8.80;99.90;;;;;;6161619;23;20044;-77
2023/05/02 05:12:58;;;;;;;7.30;2.30;;;8.80;99.90;;;;;;6161540;23;20051;-77
2023/05/02 05:15:24;;;;;;;8.52;2.40;;;8.90;99.90;;;;;;6161029;23;20446;-77
2023/05/02 05:17:50;;;;;;;10.57;2.45;;;8.90;99.90;;;;;;6161431;23;20094;-78
2023/05/02 05:20:17;;;;;;;7.68;2.30;;;8.90;99.90;;;;;;6161519;23;20021;-77
2023/05/02 05:22:42;;;;;;;6.57;2.05;;;8.80;99.90;;;;;;6185862;23;20035;-77
2023/05/02 05:25:08;;;;;;;6.30;2.42;;;8.80;99.90;;;;;;6186068;23;20080;-77
2023/05/02 05:27:34;;;;;;;7.75;2.20;;;8.80;99.90;;;;;;6187614;23;20096;-77
2023/05/02 05:30:00;;;;;;;4.32;1.80;;;8.80;99.90;;;;;;6161011;23;20013;-77
2023/05/02 05:32:26;;;;;;;5.80;2.42;;;8.70;99.90;;;;;;6160936;23;20009;-77
2023/05/02 05:34:55;;;;;;;7.85;2.03;;;8.70;99.90;;;;;;6186137;23;20112;-77
2023/05/02 05:37:21;;;;;;;7.88;2.13;;;8.70;99.90;;;;;;6185679;23;20024;-77
2023/05/02 05:39:47;;;;;;;7.13;2.83;;;8.60;99.90;;;;;;6185773;23;20013;-77
2023/05/02 05:42:13;;;;;;;9.75;2.10;;;8.70;99.90;;;;;;6160801;23;20013;-77
2023/05/02 05:44:39;;;;;;;8.32;2.30;;;8.60;99.90;;;;;;6185544;23;20013;-77
2023/05/02 05:47:04;;;;;;;6.03;2.13;;;8.60;99.90;;;;;;6185691;23;20013;-77
2023/05/02 05:49:30;;;;;;;8.32;2.20;;;8.60;99.90;;;;;;6161126;23;20017;-77
2023/05/02 05:51:56;;;;;;;9.88;2.40;;;8.60;99.90;;;;;;6160646;23;20056;-77
2023/05/02 05:54:22;;;;;;;7.45;2.40;;;8.60;99.90;;;;;;6187410;23;20090;-77
2023/05/02 05:56:47;;;;;;;7.40;2.20;;;8.70;99.90;;;;;;6185480;23;20024;-77
2023/05/02 05:59:13;;;;;;;8.68;2.38;;;8.70;99.90;;;;;;6160749;23;20012;-77
2023/05/02 06:01:39;;;;;;;6.55;2.50;;;8.70;99.90;;;;;;6185394;23;20012;-77
2023/05/02 06:04:06;;;;;;;8.00;2.78;;;8.80;99.90;;;;;;6160524;23;20009;-77
2023/05/02 06:06:32;;;;;;;7.22;2.92;;;8.80;99.90;;;;;;6185342;23;20462;-77
2023/05/02 06:08:57;;;;;;;7.07;2.55;;;8.90;99.90;;;;;;6188014;23;20048;-77
2023/05/02 06:11:23;;;;;;;8.77;3.53;;;8.90;99.90;;;;;;6187375;23;20096;-77
2023/05/02 06:13:50;;;;;;;12.13;3.20;;;9.00;99.90;;;;;;6185319;23;20345;-77
2023/05/02 06:16:17;;;;;;;11.90;3.00;;;9.10;99.90;;;;;;6187429;23;20041;-77
2023/05/02 06:18:43;;;;;;;12.07;3.13;;;9.10;99.90;;;;;;6185737;23;20009;-77
2023/05/02 06:21:08;;;;;;;9.80;3.17;;;9.20;99.90;;;;;;6184954;23;20047;-77
2023/05/02 06:23:34;;;;;;;11.10;3.35;;;9.30;99.90;;;;;;6185331;23;20036;-77
2023/05/02 06:26:01;;;;;;;9.07;3.05;;;9.20;99.90;;;;;;6185238;23;20448;-77
2023/05/02 06:28:27;;;;;;;14.13;2.78;;;9.30;99.90;;;;;;6186855;23;20431;-77
2023/05/02 06:30:58;;;;;;;6.18;2.83;;;9.30;99.90;;;;;;6160439;23;20028;-77
2023/05/02 06:33:24;;;;;;;13.07;4.15;;;9.40;99.90;;;;;;6185152;23;20009;-77
2023/05/02 06:35:53;;;;;;;10.00;3.33;;;9.40;99.90;;;;;;6160331;23;20342;-77
2023/05/02 06:38:19;;;;;;;11.20;3.47;;;9.40;99.90;;;;;;6187043;23;20009;-77
2023/05/02 06:40:44;;;;;;;6.97;2.67;;;9.50;99.90;;;;;;6186978;23;20398;-77
2023/05/02 06:43:11;;;;;;;10.85;3.63;;;9.50;99.90;;;;;;6186801;23;20527;-77
2023/05/02 06:45:36;;;;;;;11.82;3.70;;;9.50;99.90;;;;;;6185047;23;20465;-77
2023/05/02 06:48:02;;;;;;;7.40;2.95;;;9.50;99.90;;;;;;6186886;23;20009;-77
2023/05/02 06:50:28;;;;;;;9.35;3.30;;;9.50;99.90;;;;;;6186940;23;20009;-77
2023/05/02 06:52:54;;;;;;;9.88;3.35;;;9.60;99.90;;;;;;6186932;23;20415;-77
2023/05/02 06:55:20;;;;;;;10.23;3.70;;;9.60;99.90;;;;;;6186736;23;20049;-78
2023/05/02 06:57:47;;;;;;;16.10;3.28;;;9.50;99.90;;;;;;6186978;23;20071;-77
2023/05/02 07:00:15;;;;;;;11.10;3.22;;;9.50;99.90;;;;;;6184959;23;20087;-77
2023/05/02 07:02:40;;;;;;;9.13;3.17;;;9.40;99.90;;;;;;6186421;23;20017;-77
2023/05/02 07:05:06;;;;;;;12.48;3.63;;;9.50;99.90;;;;;;6186636;23;20450;-77
2023/05/02 07:07:32;;;;;;;8.18;2.80;;;9.40;99.90;;;;;;6186648;23;20009;-77
2023/05/02 07:09:58;;;;;;;12.05;3.00;;;9.30;99.90;;;;;;6186710;23;20013;-77
2023/05/02 07:12:25;;;;;;;8.90;3.22;;;9.30;99.90;;;;;;6186733;23;20010;-77
2023/05/02 07:14:51;;;;;;;13.77;3.85;;;9.30;99.90;;;;;;6184801;23;20391;-77
2023/05/02 07:17:16;;;;;;;10.32;3.03;;;9.40;99.90;;;;;;6184718;23;20023;-77
2023/05/02 07:19:42;;;;;;;8.25;3.03;;;9.40;99.90;;;;;;6159785;23;20005;-77
2023/05/02 07:22:08;;;;;;;7.50;3.08;;;9.60;99.90;;;;;;6186047;23;20013;-74
2023/05/02 07:24:33;;;;;;;13.27;3.47;;;9.50;99.90;;;;;;6186327;23;20038;-71
2023/05/02 07:26:59;;;;;;;8.13;2.80;;;9.60;99.90;;;;;;6159660;23;20026;-73
2023/05/02 07:29:25;;;;;;;7.95;3.25;;;9.70;99.90;;;;;;6159907;23;20017;-73
2023/05/02 07:31:51;;;;;;;9.25;2.85;;;9.70;99.90;;;;;;6159274;23;20013;-73
2023/05/02 07:34:16;;;;;;;9.75;2.85;;;9.70;99.90;;;;;;6159712;23;20039;-72
2023/05/02 07:36:42;;;;;;;8.63;2.95;;;9.80;99.90;;;;;;6185927;23;20330;-72
2023/05/02 07:39:08;;;;;;;9.30;2.78;;;9.90;99.90;;;;;;6159677;23;20012;-72
2023/05/02 07:41:33;;;;;;;7.53;2.72;;;9.90;98.10;;;;;;6186466;23;20013;-71
2023/05/02 07:43:59;;;;;;;10.48;2.88;;;9.70;96.10;;;;;;6186128;23;20021;-72
2023/05/02 07:46:24;;;;;;;9.60;2.90;;;9.60;97.90;;;;;;6160606;23;20013;-73
2023/05/02 07:48:52;;;;;;;8.38;3.22;;;9.60;98.90;;;;;;6159834;23;20020;-72
2023/05/02 07:51:20;;;;;;;4.45;2.72;;;9.50;97.50;;;;;;6135060;23;20319;-73
2023/05/02 07:53:46;;;;;;;8.35;2.60;;;9.30;97.50;;;;;;6160184;23;20005;-73
2023/05/02 07:56:11;;;;;;;8.60;3.35;;;9.30;96.70;;;;;;6159554;23;20040;-74
2023/05/02 07:58:37;;;;;;;7.00;3.28;;;9.20;96.90;;;;;;6186240;23;20016;-73
2023/05/02 08:01:03;;;;;;;9.05;2.90;;;9.20;98.00;;;;;;6159488;23;20020;-73
2023/05/02 08:03:29;;;;;;;5.93;2.70;;;9.30;96.20;;;;;;6159486;23;20040;-73
2023/05/02 08:05:56;;;;;;;7.65;2.85;;;9.40;97.40;;;;;;6159360;23;20391;-73
2023/05/02 08:08:21;;;;;;;8.23;2.65;;;9.30;96.70;;;;;;6186151;23;20025;-73
2023/05/02 08:10:49;;;;;;;8.43;2.65;;;9.40;96.10;;;;;;6185770;23;20027;-73
2023/05/02 08:13:14;;;;;;;6.50;2.80;;;9.40;96.10;;;;;;6186200;23;20084;-73
2023/05/02 08:15:40;;;;;;;7.22;2.92;;;9.70;98.70;;;;;;6159492;23;20048;-74
2023/05/02 08:18:06;;;;;;;7.50;2.70;;;9.80;96.10;;;;;;6185642;23;20450;-73
2023/05/02 08:20:31;;;;;;;7.60;2.65;;;10.00;97.30;;;;;;6185417;23;20009;-72
2023/05/02 08:22:57;;;;;;;6.47;2.83;;;10.20;98.60;;;;;;6159416;23;20043;-78
2023/05/02 08:25:22;;;;;;;9.48;2.67;;;10.40;98.90;;;;;;6159305;23;20088;-74
2023/05/02 08:27:48;;;;;;;9.00;3.22;;;10.70;99.60;;;;;;6159439;23;20099;-74
2023/05/02 08:30:14;;;;;;;6.78;2.63;;;10.80;98.70;;;;;;6185977;23;20013;-71
2023/05/02 08:32:39;;;;;;;7.75;3.20;;;10.70;95.50;;;;;;6134800;23;20021;-71
2023/05/02 08:35:05;;;;;;;7.78;2.70;;;10.70;97.10;;;;;;6185831;23;20028;-71
2023/05/02 08:37:31;;;;;;;6.75;3.22;;;10.80;98.00;;;;;;6159124;23;20144;-71
2023/05/02 08:39:56;;;;;;;9.40;3.10;;;10.90;98.20;;;;;;6159224;23;20048;-71
2023/05/02 08:42:23;;;;;;;9.13;3.17;;;10.70;94.30;;;;;;6185643;23;20075;-71
2023/05/02 08:44:49;;;;;;;12.95;3.75;;;10.50;94.80;;;;;;6134483;23;20402;-71
2023/05/02 08:47:18;;;;;;;6.57;2.72;;;10.30;94.80;;;;;;6159147;23;20019;-72
2023/05/02 08:49:45;;;;;;;7.75;2.90;;;10.40;96.40;;;;;;6159116;23;20024;-77
2023/05/02 08:52:12;;;;;;;8.18;3.05;;;10.20;96.10;;;;;;6160032;23;20330;-70
2023/05/02 08:54:38;;;;;;;8.63;3.20;;;10.30;97.10;;;;;;6185753;23;20009;-71
2023/05/02 08:57:04;;;;;;;8.13;2.92;;;10.30;97.00;;;;;;6185914;23;20407;-71
2023/05/02 08:59:30;;;;;;;8.27;2.88;;;10.40;97.10;;;;;;6185813;23;20020;-71
2023/05/02 09:02:09;;;;;;;8.77;2.95;;;10.30;96.40;;;;;;6158998;23;20083;-71
2023/05/02 09:04:40;;;;;;;7.78;2.80;;;10.30;96.40;;;;;;6185418;23;20430;-71
2023/05/02 09:07:05;;;;;;;7.88;3.60;;;10.50;98.10;;;;;;6159072;23;20458;-72
2023/05/02 09:09:33;;;;;;;6.53;3.17;;;10.50;96.00;;;;;;6185762;23;20013;-71
2023/05/02 09:11:58;;;;;;;7.22;2.63;;;10.70;96.50;;;;;;6185782;23;20277;-71
2023/05/02 09:14:24;;;;;;;8.30;2.67;;;10.60;97.80;;;;;;6159030;23;20021;-70
2023/05/02 09:16:58;;;;;;;5.97;2.85;;;10.80;98.70;;;;;;6159149;23;20013;-70
2023/05/02 09:19:25;;;;;;;5.88;2.33;;;10.90;96.70;;;;;;6185859;23;20005;-69
2023/05/02 09:21:51;;;;;;;5.05;2.42;;;11.00;98.10;;;;;;6178879;23;20017;-69
2023/05/02 09:24:21;;;;;;;3.72;1.83;;;11.10;99.00;;;;;;6183726;23;20468;-69
2023/05/02 09:26:55;;;;;;;4.60;1.80;;;11.30;97.70;;;;;;6185698;23;20014;-70
2023/05/02 09:29:21;;;;;;;3.65;1.58;;;11.50;98.40;;;;;;6185633;23;20013;-70
2023/05/02 09:31:47;;;;;;;2.58;1.85;;;11.60;97.20;;;;;;6185265;23;20020;-72
2023/05/02 09:34:15;;;;;;;4.50;1.40;;;11.50;93.80;;;;;;6183765;23;20021;-71
2023/05/02 09:36:42;;;;;;;4.20;1.55;;;11.60;95.70;;;;;;6183785;23;20450;-71
2023/05/02 09:39:10;;;;;;;3.40;1.58;;;11.70;96.50;;;;;;6185339;23;20468;-71
2023/05/02 09:41:44;;;;;;;4.40;1.75;;;11.50;93.80;;;;;;6185669;23;20114;-71
2023/05/02 09:44:11;;;;;;;4.55;1.40;;;11.50;95.20;;;;;;6183625;23;20097;-71
2023/05/02 09:46:40;;;;;;;3.95;1.77;;;11.30;93.30;;;;;;6185635;23;20115;-71
2023/05/02 09:49:07;;;;;;;2.90;1.35;;;11.40;94.80;;;;;;6185687;23;20008;-73
2023/05/02 09:51:33;;;;;;;5.20;1.98;;;11.50;94.40;;;;;;6185552;23;20017;-71
2023/05/02 09:53:58;;;;;;;4.15;1.23;;;11.60;94.60;;;;;;6185601;23;20013;-71
2023/05/02 09:56:24;;;;;;;5.35;1.40;;;11.50;93.50;;;;;;6185504;23;20534;-71
2023/05/02 09:58:49;;;;;;;3.33;1.42;;;11.70;94.20;;;;;;6185480;23;20013;-71
2023/05/02 10:01:19;;;;;;;5.13;1.60;;;11.60;92.80;;;;;;6187372;23;20013;-71
2023/05/02 10:03:46;;;;;;;3.40;1.37;;;11.80;94.80;;;;;;6185486;23;20013;-71
2023/05/02 10:06:12;;;;;;;4.13;1.30;;;11.90;94.10;;;;;;6185416;23;20091;-71
2023/05/02 10:08:38;;;;;;;4.03;1.33;;;11.80;92.10;;;;;;6185359;23;20013;-71
2023/05/02 10:11:07;;;;;;;2.20;1.23;;;11.80;92.60;;;;;;6187171;23;20009;-71
2023/05/02 10:13:33;;;;;;;6.00;1.58;;;11.70;91.60;;;;;;6187127;23;20009;-71
2023/05/02 10:16:03;;;;;;;2.67;1.38;;;12.00;94.70;;;;;;6185185;23;20461;-72
2023/05/02 10:18:44;;;;;;;2.85;1.40;;;12.20;95.30;;;;;;6185293;23;20020;-71
2023/05/02 10:21:11;;;;;;;5.43;1.20;;;12.50;94.00;;;;;;6186760;23;20017;-71
2023/05/02 10:23:42;;;;;;;4.38;1.35;;;12.60;93.00;;;;;;6160383;23;20025;-71
2023/05/02 10:26:09;;;;;;;5.22;1.88;;;12.80;93.80;;;;;;6160311;23;20021;-71
2023/05/02 10:28:36;;;;;;;3.40;1.40;;;12.70;93.70;;;;;;6160429;23;20449;-71
2023/05/02 10:31:03;;;;;;;3.67;1.40;;;12.50;91.20;;;;;;6187057;23;20009;-71
2023/05/02 10:33:32;;;;;;;4.47;1.40;;;12.50;92.90;;;;;;6187016;23;20012;-71
2023/05/02 10:35:59;;;;;;;4.10;1.70;;;12.50;93.20;;;;;;6187064;23;20012;-71
2023/05/02 10:38:25;;;;;;;3.22;1.30;;;12.40;91.00;;;;;;6186595;23;20024;-72
2023/05/02 10:41:00;;;;;;;3.28;1.50;;;12.10;91.10;;;;;;6160244;23;20013;-72
2023/05/02 10:43:31;;;;;;;6.07;1.70;;;11.60;91.70;;;;;;6186663;23;20446;-71
2023/05/02 10:45:57;;;;;;;2.80;1.60;;;11.70;92.30;;;;;;6186410;23;20017;-71
2023/05/02 10:48:24;;;;;;;5.65;1.70;;;11.50;92.80;;;;;;6186804;23;20040;-72
2023/05/02 10:50:51;;;;;;;6.40;2.08;;;11.40;92.90;;;;;;6186905;23;20017;-72
2023/05/02 10:53:29;;;;;;;4.93;1.42;;;11.40;93.20;;;;;;6159839;23;20466;-72
2023/05/02 10:56:25;;;;;;;4.18;1.30;;;11.60;95.30;;;;;;6159963;23;20054;-72
2023/05/02 10:59:37;;;;;;;3.95;1.48;;;11.80;93.90;;;;;;6160224;23;20013;-71
2023/05/02 11:02:04;;;;;;;3.38;1.70;;;12.00;94.80;;;;;;6152008;23;20013;-71
2023/05/02 11:05:04;;;;;;;3.53;1.33;;;11.90;93.10;;;;;;6186626;23;20091;-72
2023/05/02 11:07:32;;;;;;;3.30;1.10;;;11.70;93.20;;;;;;6186773;23;20009;-72
2023/05/02 11:10:25;;;;;;;4.28;1.30;;;11.70;93.50;;;;;;6135588;23;20017;-74
2023/05/02 11:12:55;;;;;;;3.40;1.55;;;11.80;93.40;;;;;;6186811;23;20013;-74
2023/05/02 11:15:27;;;;;;;5.07;1.45;;;12.00;95.10;;;;;;6159922;23;20017;-74
2023/05/02 11:18:02;;;;;;;4.07;1.30;;;12.20;95.70;;;;;;6187280;23;20024;-74
2023/05/02 11:20:28;;;;;;;5.72;2.25;;;12.30;95.70;;;;;;6162967;23;20048;-74
2023/05/02 11:22:56;;;;;;;3.88;1.70;;;12.30;96.20;;;;;;6184761;23;20023;-74
2023/05/02 11:25:36;;;;;;;4.40;1.50;;;12.30;96.70;;;;;;6159718;23;20025;-74
2023/05/02 11:28:06;;;;;;;;;;;12.10;94.60;;;;;;6185151;23;20028;-74
2023/05/02 11:30:38;;;;;;;5.82;1.38;;;11.70;94.20;;;;;;6186501;23;19948;-74
2023/05/02 11:33:04;;;;;;;2.88;1.45;;;11.70;96.10;;;;;;6186471;23;20012;-74
2023/05/02 11:35:30;;;;;;;3.10;1.38;;;11.80;96.50;;;;;;6186433;23;20067;-73
2023/05/02 11:38:02;;;;;;;2.55;1.10;;;11.90;94.90;;;;;;6184899;23;20020;-74
2023/05/02 11:40:28;;;;;;;4.80;1.55;;;12.00;95.60;;;;;;6186485;23;20303;-74
2023/05/02 11:42:55;;;;;;;2.40;1.30;;;12.20;94.10;;;;;;6186420;23;20013;-74
2023/05/02 11:45:22;;;;;;;3.30;1.30;;;12.30;94.60;;;;;;6184875;23;20327;-74
2023/05/02 11:47:50;;;;;;;2.97;1.20;;;12.60;94.80;;;;;;6184459;23;20017;-74
2023/05/02 11:50:17;;;;;;;5.63;1.60;;;12.70;95.70;;;;;;6184579;23;20013;-74
2023/05/02 11:52:44;;;;;;;4.13;1.63;;;12.60;93.30;;;;;;6184457;23;20063;-74
2023/05/02 11:55:10;;;;;;;5.57;1.73;;;12.70;94.90;;;;;;6184476;23;20052;-73
2023/05/02 11:57:37;;;;;;;2.83;1.27;;;12.80;96.20;;;;;;6186433;23;20088;-74
2023/05/02 12:00:03;;;;;;;4.53;2.00;;;12.60;93.00;;;;;;6185924;23;20017;-73
2023/05/02 12:02:36;;;;;;;5.70;1.63;;;12.30;92.20;;;;;;6186261;23;20024;-74
2023/05/02 12:05:06;;;;;;;3.97;1.35;;;12.20;93.20;;;;;;6186181;23;20013;-73
2023/05/02 12:07:46;;;;;;;4.07;1.50;;;12.20;94.00;;;;;;6185883;23;20040;-73
2023/05/02 12:10:13;;;;;;;6.00;1.50;;;12.20;94.90;;;;;;6186512;23;20060;-73
2023/05/02 12:12:40;;;;;;;3.15;1.20;;;12.10;94.30;;;;;;6185721;23;20558;-73
2023/05/02 12:15:07;;;;;;;3.20;1.20;;;12.30;95.80;;;;;;6186149;23;20363;-73
2023/05/02 12:17:40;;;;;;;5.05;1.52;;;12.40;97.00;;;;;;6185883;23;20017;-75
2023/05/02 12:20:11;;;;;;;4.50;1.75;;;12.40;97.40;;;;;;6185900;23;20080;-74
2023/05/02 12:22:37;;;;;;;3.85;1.48;;;12.60;97.80;;;;;;6159922;23;20021;-73
2023/05/02 12:25:04;;;;;;;3.00;1.35;;;12.60;97.10;;;;;;6185537;23;20013;-73
2023/05/02 12:27:32;;;;;;;4.20;1.50;;;12.70;96.80;;;;;;6185796;23;20123;-73
2023/05/02 12:29:57;;;;;;;6.38;1.52;;;12.80;97.00;;;;;;6185652;23;20009;-83
2023/05/02 12:32:28;;;;;;;4.05;1.30;;;12.70;95.40;;;;;;6134900;23;20017;-75
2023/05/02 12:34:54;;;;;;;5.18;1.40;;;12.90;96.40;;;;;;6134537;23;20448;-74
2023/05/02 12:37:25;;;;;;;5.32;1.77;;;13.10;96.40;;;;;;6159298;23;20021;-74
2023/05/02 12:39:52;;;;;;;5.88;1.42;;;13.30;95.30;;;;;;6159189;23;20442;-74
2023/05/02 12:42:19;;;;;;;5.22;1.30;;;13.10;95.70;;;;;;6134594;23;20020;-74
2023/05/02 12:44:46;;;;;;;4.60;1.45;;;12.90;94.00;;;;;;6134674;23;20009;-74
2023/05/02 12:47:14;;;;;;;4.57;1.50;;;12.70;92.30;;;;;;6185826;23;20031;-74
2023/05/02 12:49:53;;;;;;;3.25;1.50;;;12.40;93.60;;;;;;6159103;23;20049;-74
2023/05/02 12:52:47;;;;;;;5.75;1.88;;;12.20;94.60;;;;;;6185842;23;20015;-74
2023/05/02 12:55:20;;;;;;;2.88;1.30;;;12.00;95.80;;;;;;6185720;23;20013;-74